createdAt,value
2023-12-01T00:02:00.445Z,41.20
2023-12-01T00:04:27.542Z,41.20
2023-12-01T00:06:54.503Z,40.90
2023-12-01T00:09:21.391Z,41.10
2023-12-01T00:11:48.275Z,40.80
2023-12-01T00:14:15.057Z,41.20
2023-12-01T00:16:41.929Z,41.20
2023-12-01T00:19:08.844Z,41.00
2023-12-01T00:21:35.839Z,41.10
2023-12-01T00:24:03.488Z,41.10
2023-12-01T00:26:30.400Z,41.20
2023-12-01T00:28:59.849Z,41.20
2023-12-01T00:31:27.746Z,41.20
2023-12-01T00:33:54.705Z,41.00
2023-12-01T00:36:21.567Z,41.10
2023-12-01T00:38:48.365Z,41.30
2023-12-01T00:41:16.298Z,41.30
2023-12-01T00:43:43.206Z,41.20
2023-12-01T00:46:10.144Z,41.20
2023-12-01T00:48:37.208Z,41.30
2023-12-01T00:51:05.579Z,41.40
2023-12-01T00:53:32.461Z,40.90
2023-12-01T00:55:59.354Z,41.40
2023-12-01T00:58:27.348Z,41.30
2023-12-01T01:00:54.332Z,41.50
2023-12-01T01:03:21.330Z,41.30
2023-12-01T01:05:48.315Z,41.00
2023-12-01T01:08:15.322Z,41.30
2023-12-01T01:10:43.271Z,41.00
2023-12-01T01:13:12.114Z,41.50
2023-12-01T01:15:39.057Z,41.30
2023-12-01T01:18:07.586Z,41.40
2023-12-01T01:20:34.377Z,41.30
2023-12-01T01:23:01.381Z,41.40
2023-12-01T01:25:28.320Z,41.20
2023-12-01T01:27:55.201Z,41.20
2023-12-01T01:30:22.097Z,41.40
2023-12-01T01:32:49.396Z,41.30
2023-12-01T01:35:17.050Z,41.30
2023-12-01T01:37:44.993Z,41.30
2023-12-01T01:40:15.232Z,41.50
2023-12-01T01:42:42.081Z,40.60
2023-12-01T01:45:09.377Z,41.00
2023-12-01T01:47:37.159Z,40.80
2023-12-01T01:50:05.253Z,41.20
2023-12-01T01:52:32.184Z,41.00
2023-12-01T01:54:59.123Z,42.00
2023-12-01T01:57:26.402Z,41.40
2023-12-01T01:59:55.368Z,41.20
2023-12-01T02:02:24.332Z,41.40
2023-12-01T02:04:54.636Z,41.20
2023-12-01T02:07:29.409Z,41.30
2023-12-01T02:09:56.737Z,41.30
2023-12-01T02:12:23.657Z,40.90
2023-12-01T02:14:51.665Z,41.30
2023-12-01T02:17:20.510Z,41.10
2023-12-01T02:19:47.329Z,41.10
2023-12-01T02:22:14.124Z,41.30
2023-12-01T02:24:42.082Z,41.00
2023-12-01T02:27:08.872Z,42.00
2023-12-01T02:29:35.708Z,41.10
2023-12-01T02:32:02.807Z,41.10
2023-12-01T02:34:29.707Z,41.00
2023-12-01T02:36:59.712Z,41.10
2023-12-01T02:39:26.950Z,41.00
2023-12-01T02:41:53.860Z,41.20
2023-12-01T02:44:20.953Z,41.50
2023-12-01T02:46:47.904Z,40.90
2023-12-01T02:49:15.951Z,41.10
2023-12-01T02:51:42.856Z,40.90
2023-12-01T02:54:10.751Z,41.20
2023-12-01T02:56:37.643Z,40.90
2023-12-01T02:59:04.440Z,41.20
2023-12-01T03:01:32.465Z,41.20
2023-12-01T03:03:59.517Z,41.10
2023-12-01T03:06:26.334Z,41.10
2023-12-01T03:08:54.209Z,41.10
2023-12-01T03:11:25.239Z,41.20
2023-12-01T03:13:52.243Z,41.20
2023-12-01T03:16:19.139Z,41.10
2023-12-01T03:18:46.099Z,41.10
2023-12-01T03:21:14.338Z,41.10
2023-12-01T03:23:42.260Z,40.90
2023-12-01T03:26:09.230Z,41.10
2023-12-01T03:28:36.278Z,40.90
2023-12-01T03:31:03.884Z,41.10
2023-12-01T03:33:32.010Z,41.10
2023-12-01T03:35:58.973Z,41.40
2023-12-01T03:38:25.908Z,41.30
2023-12-01T03:40:54.331Z,40.90
2023-12-01T03:43:22.319Z,41.00
2023-12-01T03:45:49.196Z,40.90
2023-12-01T03:48:16.066Z,41.30
2023-12-01T03:50:43.041Z,41.40
2023-12-01T03:53:09.955Z,41.50
2023-12-01T03:55:36.925Z,41.30
2023-12-01T03:58:04.250Z,41.40
2023-12-01T04:00:33.846Z,41.50
2023-12-01T04:03:00.929Z,41.50
2023-12-01T04:05:27.892Z,41.30
2023-12-01T04:08:00.440Z,41.30
2023-12-01T04:10:28.810Z,41.70
2023-12-01T04:12:57.441Z,41.30
2023-12-01T04:15:28.537Z,41.40
2023-12-01T04:17:59.762Z,40.90
2023-12-01T04:20:29.301Z,41.60
2023-12-01T04:23:01.805Z,41.50
2023-12-01T04:25:29.515Z,41.30
2023-12-01T04:28:00.438Z,41.30
2023-12-01T04:30:28.674Z,41.50
2023-12-01T04:32:58.059Z,41.20
2023-12-01T04:35:28.647Z,41.30
2023-12-01T04:37:58.182Z,41.40
2023-12-01T04:40:25.812Z,42.00
2023-12-01T04:42:53.427Z,41.20
2023-12-01T04:45:21.748Z,41.30
2023-12-01T04:47:53.240Z,41.30
2023-12-01T04:50:27.887Z,41.40
2023-12-01T04:53:03.898Z,41.50
2023-12-01T04:55:31.849Z,41.30
2023-12-01T04:58:01.499Z,41.30
2023-12-01T05:00:29.594Z,40.80
2023-12-01T05:02:58.496Z,41.40
2023-12-01T05:05:27.829Z,41.70
2023-12-01T05:08:02.925Z,41.60
2023-12-01T05:10:31.487Z,41.50
2023-12-01T05:13:01.263Z,41.40
2023-12-01T05:15:31.532Z,41.30
2023-12-01T05:17:59.753Z,41.30
2023-12-01T05:20:28.814Z,41.40
2023-12-01T05:23:00.615Z,42.10
2023-12-01T05:25:34.230Z,41.30
2023-12-01T05:28:03.919Z,40.40
2023-12-01T05:30:44.471Z,41.20
2023-12-01T05:33:11.467Z,40.20
2023-12-01T05:35:39.812Z,41.30
2023-12-01T05:38:10.726Z,41.30
2023-12-01T05:40:38.705Z,41.30
2023-12-01T05:43:08.572Z,41.20
2023-12-01T05:45:39.079Z,42.20
2023-12-01T05:48:09.601Z,40.20
2023-12-01T05:50:37.811Z,41.50
2023-12-01T05:53:12.327Z,41.30
2023-12-01T05:55:39.392Z,41.30
2023-12-01T05:58:11.141Z,41.20
2023-12-01T06:00:41.469Z,41.70
2023-12-01T06:03:10.727Z,42.00
2023-12-01T06:05:38.885Z,41.40
2023-12-01T06:08:07.043Z,41.40
2023-12-01T06:10:34.576Z,41.20
2023-12-01T06:13:02.943Z,41.70
2023-12-01T06:15:35.756Z,41.60
2023-12-01T06:18:03.705Z,41.40
2023-12-01T06:20:33.350Z,41.20
2023-12-01T06:23:02.971Z,41.30
2023-12-01T06:25:34.055Z,41.30
2023-12-01T06:28:05.683Z,41.20
2023-12-01T06:30:37.905Z,41.20
2023-12-01T06:33:10.127Z,41.20
2023-12-01T06:35:37.482Z,42.00
2023-12-01T06:38:05.346Z,41.30
2023-12-01T06:40:34.401Z,41.30
2023-12-01T06:43:11.226Z,41.30
2023-12-01T06:45:39.304Z,41.60
2023-12-01T06:48:06.404Z,41.40
2023-12-01T06:50:34.548Z,41.00
2023-12-01T06:53:02.279Z,40.90
2023-12-01T06:55:30.043Z,41.00
2023-12-01T06:57:57.480Z,41.10
2023-12-01T07:00:31.801Z,41.20
2023-12-01T07:03:08.966Z,41.40
2023-12-01T07:05:38.770Z,42.00
2023-12-01T07:08:14.572Z,41.00
2023-12-01T07:10:43.382Z,40.90
2023-12-01T07:13:11.373Z,41.10
2023-12-01T07:15:38.946Z,40.90
2023-12-01T07:18:07.938Z,41.10
2023-12-01T07:20:35.097Z,40.90
2023-12-01T07:23:06.871Z,40.80
2023-12-01T07:25:34.896Z,41.10
2023-12-01T07:28:04.218Z,41.00
2023-12-01T07:30:32.486Z,41.00
2023-12-01T07:33:01.881Z,40.90
2023-12-01T07:35:30.163Z,41.70
2023-12-01T07:38:00.315Z,41.20
2023-12-01T07:40:29.360Z,40.90
2023-12-01T07:43:04.111Z,41.30
2023-12-01T07:45:32.473Z,41.50
2023-12-01T07:48:00.550Z,41.80
2023-12-01T07:50:28.914Z,41.50
2023-12-01T07:52:56.478Z,41.30
2023-12-01T07:55:25.183Z,41.50
2023-12-01T07:57:53.289Z,41.30
2023-12-01T08:00:20.366Z,41.30
2023-12-01T08:02:52.969Z,41.30
2023-12-01T08:05:22.313Z,41.10
2023-12-01T08:07:54.924Z,40.90
2023-12-01T08:10:25.342Z,41.30
2023-12-01T08:12:57.310Z,41.00
2023-12-01T08:15:29.605Z,41.30
2023-12-01T08:18:00.680Z,41.10
2023-12-01T08:20:33.513Z,41.00
2023-12-01T08:23:01.350Z,41.00
2023-12-01T08:25:30.058Z,40.90
2023-12-01T08:27:56.927Z,41.00
2023-12-01T08:30:34.118Z,41.10
2023-12-01T08:33:03.188Z,41.50
2023-12-01T08:35:39.350Z,41.90
2023-12-01T08:38:59.035Z,42.70
2023-12-01T08:41:33.293Z,43.30
2023-12-01T08:44:07.837Z,45.60
2023-12-01T08:46:35.770Z,47.00
2023-12-01T08:49:03.715Z,47.40
2023-12-01T08:51:30.557Z,47.90
2023-12-01T08:53:58.160Z,47.80
2023-12-01T08:56:30.838Z,47.80
2023-12-01T08:58:57.736Z,47.10
2023-12-01T09:01:24.700Z,47.10
2023-12-01T09:03:51.845Z,47.70
2023-12-01T09:06:19.040Z,47.50
2023-12-01T09:08:47.030Z,47.70
2023-12-01T09:11:14.037Z,46.60
2023-12-01T09:13:44.182Z,46.10
2023-12-01T09:16:11.315Z,46.00
2023-12-01T09:18:38.418Z,46.30
2023-12-01T09:21:05.834Z,45.80
2023-12-01T09:23:33.293Z,46.00
2023-12-01T09:26:00.227Z,44.50
2023-12-01T09:28:27.100Z,44.60
2023-12-01T09:30:54.085Z,44.60
2023-12-01T09:33:22.138Z,44.50
2023-12-01T09:35:56.024Z,44.30
2023-12-01T09:38:26.280Z,44.10
2023-12-01T09:40:53.445Z,43.60
2023-12-01T09:43:20.846Z,43.70
2023-12-01T09:45:49.378Z,43.70
2023-12-01T09:48:19.946Z,43.80
2023-12-01T09:50:49.960Z,43.80
2023-12-01T09:53:20.489Z,44.00
2023-12-01T09:55:47.586Z,41.60
2023-12-01T09:58:16.334Z,43.40
2023-12-01T10:00:49.112Z,43.20
2023-12-01T10:03:17.198Z,43.30
2023-12-01T10:05:44.549Z,43.10
2023-12-01T10:08:12.879Z,43.00
2023-12-01T10:10:40.162Z,43.30
2023-12-01T10:13:08.938Z,43.00
2023-12-01T10:15:41.074Z,42.90
2023-12-01T10:18:20.493Z,42.80
2023-12-01T10:21:05.576Z,42.70
2023-12-01T10:23:34.925Z,42.40
2023-12-01T10:26:07.857Z,42.50
2023-12-01T10:28:41.596Z,41.40
2023-12-01T10:31:09.147Z,42.20
2023-12-01T10:33:37.689Z,42.50
2023-12-01T10:36:06.135Z,44.30
2023-12-01T10:38:34.474Z,41.80
2023-12-01T10:41:04.503Z,43.20
2023-12-01T10:43:33.527Z,42.10
2023-12-01T10:46:06.477Z,42.00
2023-12-01T10:48:36.475Z,41.90
2023-12-01T10:51:07.544Z,41.80
2023-12-01T10:53:36.604Z,41.50
2023-12-01T10:56:05.526Z,41.80
2023-12-01T10:58:37.431Z,41.40
2023-12-01T11:01:05.612Z,42.70
2023-12-01T11:03:33.550Z,41.80
2023-12-01T11:06:04.248Z,43.50
2023-12-01T11:08:56.381Z,41.30
2023-12-01T11:11:54.793Z,40.10
2023-12-01T11:14:25.484Z,40.10
2023-12-01T11:16:54.377Z,41.40
2023-12-01T11:19:24.991Z,41.30
2023-12-01T11:21:58.184Z,41.40
2023-12-01T11:24:32.924Z,41.30
2023-12-01T11:27:08.675Z,41.30
2023-12-01T11:29:37.706Z,39.80
2023-12-01T11:32:06.274Z,41.00
2023-12-01T11:34:33.751Z,41.40
2023-12-01T11:37:06.583Z,41.50
2023-12-01T11:39:35.488Z,41.20
2023-12-01T11:42:03.332Z,41.00
2023-12-01T11:44:39.786Z,41.00
2023-12-01T11:47:10.050Z,41.00
2023-12-01T11:49:40.087Z,41.00
2023-12-01T11:52:14.531Z,40.90
2023-12-01T11:54:42.835Z,40.70
2023-12-01T11:57:13.687Z,40.80
2023-12-01T11:59:40.897Z,40.80
2023-12-01T12:02:09.064Z,41.10
2023-12-01T12:04:40.770Z,41.00
2023-12-01T12:07:07.795Z,41.20
2023-12-01T12:09:38.696Z,41.00
2023-12-01T12:12:11.472Z,40.70
2023-12-01T12:14:39.793Z,40.40
2023-12-01T12:17:07.729Z,41.50
2023-12-01T12:19:50.492Z,41.10
2023-12-01T12:22:21.945Z,40.70
2023-12-01T12:24:51.670Z,41.00
2023-12-01T12:27:18.749Z,40.90
2023-12-01T12:29:46.778Z,40.80
2023-12-01T12:32:19.766Z,41.20
2023-12-01T12:34:47.841Z,40.80
2023-12-01T12:37:17.048Z,41.00
2023-12-01T12:39:52.023Z,40.70
2023-12-01T12:42:20.042Z,40.60
2023-12-01T12:44:47.351Z,44.00
2023-12-01T12:47:16.654Z,42.20
2023-12-01T12:49:46.624Z,41.70
2023-12-01T12:52:14.554Z,41.10
2023-12-01T12:54:44.922Z,41.40
2023-12-01T12:57:13.007Z,41.50
2023-12-01T12:59:43.778Z,43.10
2023-12-01T13:02:10.980Z,41.30
2023-12-01T13:04:38.909Z,41.30
2023-12-01T13:07:08.976Z,41.20
2023-12-01T13:09:36.081Z,41.60
2023-12-01T13:12:22.142Z,42.00
2023-12-01T13:14:49.138Z,40.00
2023-12-01T13:17:16.081Z,41.00
2023-12-01T13:19:44.317Z,41.80
2023-12-01T13:22:11.290Z,41.00
2023-12-01T13:24:44.332Z,41.40
2023-12-01T13:27:13.829Z,40.80
2023-12-01T13:29:44.630Z,40.90
2023-12-01T13:32:21.382Z,40.70
2023-12-01T13:34:49.315Z,40.60
2023-12-01T13:37:17.376Z,40.90
2023-12-01T13:39:50.030Z,41.20
2023-12-01T13:42:18.076Z,41.80
2023-12-01T13:44:52.570Z,40.60
2023-12-01T13:47:20.761Z,40.70
2023-12-01T13:49:53.788Z,40.60
2023-12-01T13:52:21.858Z,40.80
2023-12-01T13:54:50.799Z,40.50
2023-12-01T13:57:18.156Z,41.10
2023-12-01T13:59:46.698Z,40.30
2023-12-01T14:02:18.880Z,40.50
2023-12-01T14:04:48.320Z,40.10
2023-12-01T14:07:17.447Z,41.00
2023-12-01T14:09:46.429Z,40.80
2023-12-01T14:12:19.466Z,39.20
2023-12-01T14:14:48.934Z,40.70
2023-12-01T14:17:16.918Z,40.40
2023-12-01T14:19:45.195Z,40.90
2023-12-01T14:22:14.331Z,40.30
2023-12-01T14:24:41.734Z,39.90
2023-12-01T14:27:13.166Z,40.00
2023-12-01T14:29:42.310Z,40.10
2023-12-01T14:32:17.969Z,40.40
2023-12-01T14:34:51.329Z,40.20
2023-12-01T14:37:22.560Z,40.10
2023-12-01T14:39:49.463Z,39.70
2023-12-01T14:42:16.563Z,40.20
2023-12-01T14:44:44.559Z,40.20
2023-12-01T14:47:11.443Z,40.90
2023-12-01T14:49:38.740Z,40.20
2023-12-01T14:52:05.967Z,41.80
2023-12-01T14:54:35.534Z,40.80
2023-12-01T14:57:02.493Z,38.50
2023-12-01T14:59:30.556Z,40.20
2023-12-01T15:01:57.632Z,40.50
2023-12-01T15:04:25.110Z,40.20
2023-12-01T15:06:52.057Z,40.10
2023-12-01T15:09:21.082Z,40.50
2023-12-01T15:11:51.486Z,40.60
2023-12-01T15:14:18.811Z,41.10
2023-12-01T15:16:45.666Z,40.10
2023-12-01T15:19:12.679Z,40.10
2023-12-01T15:21:42.387Z,40.00
2023-12-01T15:24:09.532Z,40.10
2023-12-01T15:26:36.743Z,40.00
2023-12-01T15:29:04.101Z,40.30
2023-12-01T15:31:31.482Z,40.40
2023-12-01T15:33:58.486Z,41.00
2023-12-01T15:36:25.591Z,40.50
2023-12-01T15:38:52.764Z,40.50
2023-12-01T15:41:19.893Z,40.20
2023-12-01T15:43:47.706Z,39.80
2023-12-01T15:46:14.604Z,40.40
2023-12-01T15:48:44.685Z,40.50
2023-12-01T15:51:12.181Z,40.40
2023-12-01T15:53:39.109Z,41.00
2023-12-01T15:56:06.424Z,40.40
2023-12-01T15:58:33.467Z,39.80
2023-12-01T16:01:00.674Z,40.30
2023-12-01T16:03:27.745Z,40.40
2023-12-01T16:05:57.299Z,40.10
2023-12-01T16:08:25.307Z,41.30
2023-12-01T16:10:53.401Z,40.10
2023-12-01T16:13:20.308Z,39.70
2023-12-01T16:15:48.329Z,40.30
2023-12-01T16:18:15.414Z,39.80
2023-12-01T16:20:44.224Z,40.20
2023-12-01T16:23:11.426Z,39.60
2023-12-01T16:25:38.410Z,39.80
2023-12-01T16:28:05.649Z,39.70
2023-12-01T16:30:33.566Z,40.10
2023-12-01T16:33:00.549Z,40.00
2023-12-01T16:35:29.081Z,40.10
2023-12-01T16:37:56.154Z,39.20
2023-12-01T16:40:23.258Z,39.90
2023-12-01T16:42:52.592Z,39.60
2023-12-01T16:45:20.825Z,39.80
2023-12-01T16:47:48.839Z,40.10
2023-12-01T16:50:17.090Z,39.50
2023-12-01T16:52:44.034Z,39.80
2023-12-01T16:55:12.965Z,39.90
2023-12-01T16:57:43.049Z,39.50
2023-12-01T17:00:11.636Z,40.10
2023-12-01T17:02:39.716Z,39.00
2023-12-01T17:05:07.246Z,40.30
2023-12-01T17:07:34.226Z,39.60
2023-12-01T17:10:01.218Z,39.90
2023-12-01T17:12:28.150Z,40.50
2023-12-01T17:14:56.118Z,41.40
2023-12-01T17:17:23.073Z,40.00
2023-12-01T17:19:50.086Z,40.20
2023-12-01T17:22:16.988Z,39.70
2023-12-01T17:24:44.044Z,40.30
2023-12-01T17:27:12.846Z,39.80
2023-12-01T17:29:41.721Z,39.50
2023-12-01T17:32:09.707Z,39.30
2023-12-01T17:34:37.752Z,39.50
2023-12-01T17:37:04.971Z,39.00
2023-12-01T17:39:32.436Z,39.40
2023-12-01T17:41:59.585Z,40.90
2023-12-01T17:44:26.868Z,39.60
2023-12-01T17:46:53.913Z,39.50
2023-12-01T17:49:21.590Z,39.70
2023-12-01T17:51:49.242Z,40.80
2023-12-01T17:54:16.188Z,39.80
2023-12-01T17:56:44.165Z,39.50
2023-12-01T17:59:11.111Z,39.80
2023-12-01T18:01:38.727Z,39.70
2023-12-01T18:04:06.236Z,39.40
2023-12-01T18:06:36.300Z,39.90
2023-12-01T18:09:04.048Z,39.80
2023-12-01T18:11:30.993Z,39.20
2023-12-01T18:13:58.002Z,39.40
2023-12-01T18:16:24.975Z,39.70
2023-12-01T18:18:52.906Z,39.90
2023-12-01T18:21:20.885Z,39.80
2023-12-01T18:23:48.106Z,39.90
2023-12-01T18:26:15.068Z,39.60
2023-12-01T18:28:43.151Z,39.70
2023-12-01T18:31:10.161Z,39.30
2023-12-01T18:33:37.221Z,39.40
2023-12-01T18:36:04.474Z,39.50
2023-12-01T18:38:31.400Z,39.10
2023-12-01T18:40:58.559Z,39.20
2023-12-01T18:43:26.446Z,39.00
2023-12-01T18:45:55.304Z,39.10
2023-12-01T18:48:23.748Z,39.30
2023-12-01T18:50:51.615Z,39.00
2023-12-01T18:53:18.674Z,39.00
2023-12-01T18:55:45.510Z,39.30
2023-12-01T18:58:12.366Z,39.70
2023-12-01T19:00:39.331Z,39.60
2023-12-01T19:03:06.324Z,39.70
2023-12-01T19:05:33.326Z,39.30
2023-12-01T19:08:00.207Z,39.60
2023-12-01T19:10:27.163Z,39.40
2023-12-01T19:12:54.016Z,39.30
2023-12-01T19:15:21.234Z,39.40
2023-12-01T19:17:48.298Z,39.10
2023-12-01T19:20:16.377Z,39.40
2023-12-01T19:22:44.336Z,39.40
2023-12-01T19:25:11.283Z,39.30
2023-12-01T19:27:38.082Z,39.30
2023-12-01T19:30:05.893Z,39.20
2023-12-01T19:32:36.840Z,38.40
2023-12-01T19:35:04.223Z,39.30
2023-12-01T19:37:32.115Z,38.70
2023-12-01T19:39:59.090Z,39.30
2023-12-01T19:42:26.091Z,39.20
2023-12-01T19:44:53.110Z,39.60
2023-12-01T19:47:19.978Z,39.30
2023-12-01T19:49:47.004Z,39.30
2023-12-01T19:52:13.933Z,40.00
2023-12-01T19:54:41.849Z,39.10
2023-12-01T19:57:08.746Z,39.40
2023-12-01T19:59:35.599Z,39.80
2023-12-01T20:02:03.686Z,39.10
2023-12-01T20:04:30.660Z,38.90
2023-12-01T20:06:57.588Z,39.00
2023-12-01T20:09:24.630Z,39.10
2023-12-01T20:11:51.991Z,39.10
2023-12-01T20:14:19.451Z,38.50
2023-12-01T20:16:46.421Z,38.60
2023-12-01T20:19:13.877Z,38.80
2023-12-01T20:21:40.895Z,38.50
2023-12-01T20:24:09.760Z,39.00
2023-12-01T20:26:36.922Z,38.80
2023-12-01T20:29:04.518Z,38.50
2023-12-01T20:31:31.487Z,38.40
2023-12-01T20:33:58.465Z,38.60
2023-12-01T20:36:27.409Z,38.40
2023-12-01T20:38:54.496Z,38.90
2023-12-01T20:41:21.366Z,38.30
2023-12-01T20:43:48.296Z,38.60
2023-12-01T20:46:16.658Z,38.50
2023-12-01T20:48:44.530Z,38.10
2023-12-01T20:51:18.207Z,38.30
2023-12-01T20:53:45.273Z,37.90
2023-12-01T20:56:12.484Z,39.10
2023-12-01T20:58:39.492Z,39.00
2023-12-01T21:01:07.233Z,38.50
2023-12-01T21:03:34.368Z,38.00
2023-12-01T21:06:01.611Z,38.20
2023-12-01T21:08:28.546Z,38.00
2023-12-01T21:10:55.558Z,38.10
2023-12-01T21:13:22.486Z,37.70
2023-12-01T21:15:50.009Z,37.90
2023-12-01T21:18:17.077Z,37.90
2023-12-01T21:20:44.077Z,38.20
2023-12-01T21:23:11.001Z,37.80
2023-12-01T21:25:37.935Z,38.20
2023-12-01T21:28:04.932Z,38.00
2023-12-01T21:30:33.239Z,37.60
2023-12-01T21:33:00.205Z,37.70
2023-12-01T21:35:27.230Z,38.20
2023-12-01T21:37:54.064Z,38.10
2023-12-01T21:40:21.488Z,37.70
2023-12-01T21:42:48.610Z,37.40
2023-12-01T21:45:15.529Z,37.80
2023-12-01T21:47:42.528Z,37.70
2023-12-01T21:50:10.217Z,37.80
2023-12-01T21:52:37.652Z,37.80
2023-12-01T21:55:05.126Z,37.50
2023-12-01T21:57:32.048Z,37.50
2023-12-01T21:59:59.898Z,37.70
2023-12-01T22:02:27.386Z,37.90
2023-12-01T22:04:55.363Z,37.50
2023-12-01T22:07:22.442Z,37.80
2023-12-01T22:09:49.308Z,37.50
2023-12-01T22:12:16.162Z,38.40
2023-12-01T22:14:46.767Z,37.80
2023-12-01T22:17:13.703Z,38.90
2023-12-01T22:19:40.611Z,38.10
2023-12-01T22:22:07.703Z,37.70
2023-12-01T22:24:45.681Z,37.70
2023-12-01T22:27:12.741Z,37.40
2023-12-01T22:29:39.662Z,37.20
2023-12-01T22:32:06.926Z,37.70
2023-12-01T22:34:33.821Z,36.90
2023-12-01T22:37:00.853Z,37.50
2023-12-01T22:39:30.170Z,38.90
2023-12-01T22:41:57.344Z,37.40
2023-12-01T22:44:25.047Z,37.50
2023-12-01T22:46:56.021Z,37.30
2023-12-01T22:49:22.992Z,37.00
2023-12-01T22:51:50.073Z,37.50
2023-12-01T22:54:17.305Z,37.90
2023-12-01T22:56:44.207Z,38.10
2023-12-01T22:59:11.434Z,37.40
2023-12-01T23:01:38.432Z,37.50
2023-12-01T23:04:05.890Z,37.40
2023-12-01T23:06:33.194Z,37.50
2023-12-01T23:09:00.331Z,38.60
2023-12-01T23:11:27.292Z,38.20
2023-12-01T23:13:54.506Z,37.70
2023-12-01T23:16:21.359Z,37.50
2023-12-01T23:18:48.496Z,37.40
2023-12-01T23:21:15.923Z,37.40
2023-12-01T23:23:43.304Z,37.50
2023-12-01T23:26:10.206Z,37.10
2023-12-01T23:28:37.189Z,37.40
2023-12-01T23:31:04.192Z,37.80
2023-12-01T23:33:31.184Z,38.40
2023-12-01T23:35:58.153Z,37.40
2023-12-01T23:38:24.962Z,37.70
2023-12-01T23:40:52.883Z,37.70
2023-12-01T23:43:19.804Z,38.70
2023-12-01T23:45:46.617Z,37.70
2023-12-01T23:48:13.714Z,37.60
2023-12-01T23:50:40.656Z,37.20
2023-12-01T23:53:07.603Z,37.10
2023-12-01T23:55:34.551Z,38.10
2023-12-01T23:58:01.527Z,37.30
